Time;durP1;ratioP1;P1;durP2;ratioP2;P2;SDS_P1;SDS_P2;PMS_P1;PMS_P2;Temp;Humidity;BMP_temperature;BMP_pressure;BME280_temperature;BME280_humidity;BME280_pressure;Samples;Min_cycle;Max_cycle;Signal;HPM_P1;HPM_P2
2021/10/28 00:14:33;;;;;;;5.30;4.80;;;12.00;99.90;;;;;;5073288;28;20501;-76
2021/10/28 00:17:08;;;;;;;4.80;4.40;;;11.90;99.90;;;;;;5077474;28;20865;-75
2021/10/28 00:19:35;;;;;;;5.67;5.17;;;11.90;99.90;;;;;;5072703;28;20938;-75
2021/10/28 00:22:03;;;;;;;4.73;4.43;;;11.80;99.90;;;;;;5073075;28;21072;-75
2021/10/28 00:24:29;;;;;;;4.83;4.37;;;11.70;99.90;;;;;;5073053;28;20454;-75
2021/10/28 00:26:56;;;;;;;4.93;4.43;;;11.60;99.90;;;;;;5073104;28;20913;-75
2021/10/28 00:29:23;;;;;;;5.13;4.73;;;11.60;99.90;;;;;;5073149;28;20455;-75
2021/10/28 00:31:50;;;;;;;5.13;4.77;;;11.60;99.90;;;;;;5072934;28;20448;-75
2021/10/28 00:34:18;;;;;;;5.10;4.70;;;11.50;99.90;;;;;;5073032;28;20443;-75
2021/10/28 00:36:49;;;;;;;4.97;4.30;;;11.50;99.90;;;;;;5068038;28;20535;-76
2021/10/28 00:39:16;;;;;;;4.53;4.13;;;11.40;99.90;;;;;;5072880;28;20531;-76
2021/10/28 00:41:46;;;;;;;5.30;4.50;;;11.40;99.90;;;;;;5072734;28;20471;-75
2021/10/28 00:44:12;;;;;;;5.30;4.90;;;11.30;99.90;;;;;;5066971;28;20447;-76
2021/10/28 00:46:40;;;;;;;5.03;4.60;;;11.30;99.90;;;;;;5072685;28;20526;-75
2021/10/28 00:49:09;;;;;;;9.70;5.50;;;11.20;99.90;;;;;;5072386;28;20448;-75
2021/10/28 00:51:39;;;;;;;6.33;5.70;;;11.20;99.90;;;;;;5072718;28;20444;-75
2021/10/28 00:54:07;;;;;;;6.60;5.23;;;11.20;99.90;;;;;;5072701;28;20530;-75
2021/10/28 00:56:35;;;;;;;5.47;4.90;;;11.20;99.90;;;;;;5072610;28;20509;-75
2021/10/28 00:59:02;;;;;;;4.67;4.27;;;11.10;99.90;;;;;;5072353;28;20947;-75
2021/10/28 01:01:29;;;;;;;6.10;5.60;;;11.10;99.90;;;;;;5072733;28;20443;-76
2021/10/28 01:03:55;;;;;;;6.30;5.70;;;11.00;99.90;;;;;;5072680;28;20481;-76
2021/10/28 01:06:23;;;;;;;5.90;5.40;;;11.00;99.90;;;;;;5072583;28;20873;-76
2021/10/28 01:08:51;;;;;;;5.50;5.10;;;11.00;99.90;;;;;;5072395;28;20451;-76
2021/10/28 01:11:18;;;;;;;6.23;5.73;;;10.90;99.90;;;;;;5072401;28;20448;-76
2021/10/28 01:13:45;;;;;;;6.37;5.73;;;10.90;99.90;;;;;;5072424;28;20484;-76
2021/10/28 01:16:12;;;;;;;5.43;5.03;;;10.90;99.90;;;;;;5074471;28;20807;-76
2021/10/28 01:18:43;;;;;;;5.50;5.10;;;10.80;99.90;;;;;;5072192;28;20471;-76
2021/10/28 01:21:11;;;;;;;6.60;6.00;;;10.80;99.90;;;;;;5070444;28;20454;-76
2021/10/28 01:23:40;;;;;;;7.00;6.30;;;10.80;99.90;;;;;;5072245;28;21073;-76
2021/10/28 01:26:10;;;;;;;6.37;5.77;;;10.80;99.90;;;;;;5072045;28;20465;-76
2021/10/28 01:28:38;;;;;;;6.57;5.97;;;10.70;99.90;;;;;;5072151;28;20533;-76
2021/10/28 01:31:08;;;;;;;6.20;5.70;;;10.70;99.90;;;;;;5071090;28;20546;-76
2021/10/28 01:33:35;;;;;;;7.17;6.23;;;10.70;99.90;;;;;;5070721;28;20489;-76
2021/10/28 01:36:02;;;;;;;8.07;7.37;;;10.70;99.90;;;;;;5071525;28;20471;-76
2021/10/28 01:38:30;;;;;;;6.80;6.27;;;10.70;99.90;;;;;;5055919;28;20678;-76
2021/10/28 01:40:58;;;;;;;6.83;6.33;;;10.60;99.90;;;;;;5072495;28;20439;-76
2021/10/28 01:43:26;;;;;;;6.97;6.30;;;10.60;99.90;;;;;;5071896;28;20973;-76
2021/10/28 01:45:53;;;;;;;7.90;7.10;;;10.60;99.90;;;;;;5072341;28;20483;-76
2021/10/28 01:48:20;;;;;;;7.50;6.90;;;10.50;99.90;;;;;;5072149;28;20475;-76
2021/10/28 01:50:48;;;;;;;8.17;7.37;;;10.50;99.90;;;;;;5072093;28;20479;-76
2021/10/28 01:53:15;;;;;;;8.50;7.70;;;10.50;99.90;;;;;;5071989;28;20644;-76
2021/10/28 01:55:44;;;;;;;7.10;6.50;;;10.40;99.90;;;;;;5072071;28;20451;-75
2021/10/28 01:58:11;;;;;;;7.23;6.63;;;10.50;99.90;;;;;;5072060;28;20521;-75
2021/10/28 02:00:41;;;;;;;7.87;7.17;;;10.40;99.90;;;;;;5072386;28;20450;-75
2021/10/28 02:03:08;;;;;;;8.60;7.80;;;10.40;99.90;;;;;;5075893;28;20501;-75
2021/10/28 02:05:35;;;;;;;8.93;8.03;;;10.40;99.90;;;;;;5075740;28;20447;-75
2021/10/28 02:08:02;;;;;;;8.80;8.00;;;10.40;99.90;;;;;;5075992;28;20447;-83
2021/10/28 02:10:29;;;;;;;9.27;8.37;;;10.40;99.90;;;;;;5075490;28;20501;-75
2021/10/28 02:12:57;;;;;;;10.27;9.27;;;10.40;99.90;;;;;;5075790;28;20875;-74
2021/10/28 02:15:25;;;;;;;9.60;8.50;;;10.30;99.90;;;;;;5075823;28;20490;-75
2021/10/28 02:17:52;;;;;;;9.00;8.20;;;10.30;99.90;;;;;;5079459;28;20451;-75
2021/10/28 02:20:20;;;;;;;9.30;8.50;;;10.30;99.90;;;;;;5075324;28;20458;-75
2021/10/28 02:22:48;;;;;;;10.10;9.10;;;10.30;99.90;;;;;;5075671;28;20877;-75
2021/10/28 02:25:16;;;;;;;9.37;8.47;;;10.30;99.90;;;;;;5075326;28;21011;-75
2021/10/28 02:27:42;;;;;;;9.80;8.90;;;10.20;99.90;;;;;;5075627;28;20950;-75
2021/10/28 02:30:12;;;;;;;9.37;8.57;;;10.20;99.90;;;;;;5075197;28;20443;-75
2021/10/28 02:32:38;;;;;;;10.47;9.47;;;10.20;99.90;;;;;;5075344;28;20459;-75
2021/10/28 02:35:06;;;;;;;10.17;9.27;;;10.10;99.90;;;;;;5075442;28;20447;-75
2021/10/28 02:37:32;;;;;;;10.57;9.60;;;10.10;99.90;;;;;;5075126;28;20886;-75
2021/10/28 02:39:59;;;;;;;9.60;8.70;;;10.10;99.90;;;;;;5075224;28;20542;-75
2021/10/28 02:42:26;;;;;;;10.23;9.10;;;10.10;99.90;;;;;;5075063;28;20491;-75
2021/10/28 02:44:52;;;;;;;10.63;9.57;;;10.10;99.90;;;;;;5075196;28;20981;-74
2021/10/28 02:47:20;;;;;;;11.53;9.87;;;10.00;99.90;;;;;;5074766;28;20980;-74
2021/10/28 02:49:47;;;;;;;11.70;10.60;;;10.00;99.90;;;;;;5073854;28;20452;-75
2021/10/28 02:52:13;;;;;;;11.37;10.10;;;10.00;99.90;;;;;;5074999;28;20479;-75
2021/10/28 02:54:40;;;;;;;10.43;9.33;;;10.00;99.90;;;;;;5074764;28;20478;-75
2021/10/28 02:57:08;;;;;;;10.23;9.10;;;9.90;99.90;;;;;;5074904;28;20547;-75
2021/10/28 02:59:34;;;;;;;11.50;10.40;;;10.00;99.90;;;;;;5074662;28;20845;-76
2021/10/28 03:02:01;;;;;;;11.90;9.30;;;9.90;99.90;;;;;;5074575;28;21080;-74
2021/10/28 03:04:31;;;;;;;10.73;9.63;;;9.90;99.90;;;;;;5058424;28;20590;-76
2021/10/28 03:06:57;;;;;;;10.77;9.67;;;9.80;99.90;;;;;;5074894;28;20479;-76
2021/10/28 03:09:26;;;;;;;11.37;10.23;;;9.80;99.90;;;;;;5074481;28;20479;-75
2021/10/28 03:11:55;;;;;;;13.20;11.00;;;9.80;99.90;;;;;;5074407;28;20505;-76
2021/10/28 03:14:27;;;;;;;11.20;10.13;;;9.80;99.90;;;;;;5074260;28;20483;-75
2021/10/28 03:16:58;;;;;;;13.00;10.90;;;9.80;99.90;;;;;;5073504;28;20448;-75
2021/10/28 03:19:32;;;;;;;10.93;9.80;;;9.80;99.90;;;;;;5074013;28;20472;-74
2021/10/28 03:27:30;;;;;;;11.40;10.30;;;9.70;99.90;;;;;;5074240;28;20581;-75
2021/10/28 03:29:56;;;;;;;11.20;10.13;;;9.60;99.90;;;;;;5074177;28;20455;-74
2021/10/28 03:32:23;;;;;;;11.17;10.07;;;9.60;99.90;;;;;;5074185;28;20853;-75
2021/10/28 03:34:51;;;;;;;14.73;11.30;;;9.60;99.90;;;;;;5074203;28;20522;-75
2021/10/28 03:37:22;;;;;;;11.07;9.90;;;9.60;99.90;;;;;;5074171;28;20444;-75
2021/10/28 03:45:51;;;;;;;11.13;9.53;;;9.50;99.90;;;;;;5073863;28;20440;-75
2021/10/28 03:48:42;;;;;;;12.23;10.87;;;9.50;99.90;;;;;;5073943;28;20551;-75
2021/10/28 03:59:58;;;;;;;12.50;11.20;;;9.40;99.90;;;;;;5031423;28;20438;-75
2021/10/28 04:05:46;;;;;;;15.07;12.03;;;9.30;99.90;;;;;;5073626;28;20536;-78
2021/10/28 04:08:48;;;;;;;13.93;11.37;;;9.30;99.90;;;;;;5073299;28;20952;-78
2021/10/28 04:17:01;;;;;;;12.07;10.87;;;9.30;99.90;;;;;;5046585;28;20451;-75
2021/10/28 04:30:28;;;;;;;15.70;12.13;;;9.20;99.90;;;;;;5073073;28;20443;-74
2021/10/28 04:32:55;;;;;;;12.00;10.80;;;9.20;99.90;;;;;;5073095;28;20448;-75
2021/10/28 04:35:22;;;;;;;16.00;12.17;;;9.20;99.90;;;;;;5072693;28;20947;-75
2021/10/28 04:37:49;;;;;;;12.20;10.80;;;9.20;99.90;;;;;;5072913;28;20470;-75
2021/10/28 04:40:16;;;;;;;12.30;10.77;;;9.20;99.90;;;;;;5072911;28;20784;-75
2021/10/28 04:42:44;;;;;;;12.97;11.63;;;9.20;99.90;;;;;;5072791;28;20548;-74
2021/10/28 04:45:11;;;;;;;12.93;11.53;;;9.20;99.90;;;;;;5072710;28;20486;-75
2021/10/28 04:47:37;;;;;;;29.57;24.90;;;9.20;99.90;;;;;;5072815;28;20452;-75
2021/10/28 04:50:05;;;;;;;32.30;24.77;;;9.10;99.90;;;;;;5072633;28;20534;-75
2021/10/28 04:52:35;;;;;;;19.97;16.73;;;9.10;99.90;;;;;;5072898;28;20486;-75
2021/10/28 04:55:01;;;;;;;13.47;11.80;;;9.10;99.90;;;;;;5072714;28;20459;-76
2021/10/28 04:57:28;;;;;;;14.07;12.57;;;9.00;99.90;;;;;;5071249;28;20458;-76
2021/10/28 04:59:56;;;;;;;12.87;10.70;;;9.10;99.90;;;;;;5072660;28;20455;-76
2021/10/28 05:02:22;;;;;;;12.53;10.63;;;9.00;99.90;;;;;;5072361;28;20439;-76
2021/10/28 05:04:49;;;;;;;14.43;12.27;;;9.00;99.90;;;;;;5072552;28;20980;-76
2021/10/28 05:07:16;;;;;;;11.43;10.30;;;9.00;99.90;;;;;;5072328;28;20459;-76
2021/10/28 05:09:43;;;;;;;12.90;11.03;;;9.00;99.90;;;;;;5072420;28;20452;-76
2021/10/28 05:12:10;;;;;;;11.97;10.60;;;9.00;99.90;;;;;;5072474;28;20450;-76
2021/10/28 05:14:37;;;;;;;14.20;11.60;;;8.80;99.90;;;;;;5072383;28;20444;-75
2021/10/28 05:17:06;;;;;;;12.23;10.93;;;8.90;99.90;;;;;;5078019;28;20447;-75
2021/10/28 05:19:37;;;;;;;12.93;11.00;;;8.90;99.90;;;;;;5071972;28;20474;-75
2021/10/28 05:22:04;;;;;;;12.70;10.10;;;8.90;99.90;;;;;;5072438;28;20447;-75
2021/10/28 05:24:31;;;;;;;14.43;11.87;;;8.90;99.90;;;;;;5072379;28;20528;-75
2021/10/28 05:26:57;;;;;;;11.40;10.20;;;8.80;99.90;;;;;;5072219;28;20443;-75
2021/10/28 05:29:24;;;;;;;13.87;11.83;;;8.80;99.90;;;;;;5072077;28;20486;-75
2021/10/28 05:31:50;;;;;;;14.70;10.93;;;8.80;99.90;;;;;;5072132;28;20989;-75
2021/10/28 05:34:18;;;;;;;12.77;10.80;;;8.80;99.90;;;;;;5072263;28;20851;-75
2021/10/28 05:36:45;;;;;;;11.40;9.97;;;8.80;99.90;;;;;;5076185;28;20499;-76
2021/10/28 05:39:12;;;;;;;16.50;12.23;;;8.80;99.90;;;;;;5076228;28;20992;-76
2021/10/28 05:41:39;;;;;;;13.47;10.87;;;8.70;99.90;;;;;;5076240;28;20451;-75
2021/10/28 05:44:05;;;;;;;13.60;11.20;;;8.70;99.90;;;;;;5076121;28;20478;-75
2021/10/28 05:46:32;;;;;;;14.17;11.57;;;8.70;99.90;;;;;;5074520;28;20881;-75
2021/10/28 05:48:59;;;;;;;14.33;12.83;;;8.70;99.90;;;;;;5076163;28;20462;-76
2021/10/28 05:51:28;;;;;;;13.33;11.33;;;8.70;99.90;;;;;;5075906;28;20958;-75
2021/10/28 05:53:55;;;;;;;15.80;12.60;;;8.60;99.90;;;;;;5076159;28;20484;-75
2021/10/28 05:56:21;;;;;;;15.10;12.23;;;8.60;99.90;;;;;;5075658;28;20440;-77
2021/10/28 05:58:48;;;;;;;13.10;11.27;;;8.60;99.90;;;;;;5075826;28;20504;-77
2021/10/28 06:01:15;;;;;;;15.87;12.50;;;8.70;99.90;;;;;;5076018;28;20534;-78
2021/10/28 06:03:41;;;;;;;13.43;11.60;;;8.70;99.90;;;;;;5075850;28;20471;-78
2021/10/28 06:06:08;;;;;;;12.40;10.40;;;8.70;99.90;;;;;;5075571;28;20475;-78
2021/10/28 06:08:36;;;;;;;15.47;12.17;;;8.70;99.90;;;;;;5075794;28;20520;-77
2021/10/28 06:11:03;;;;;;;16.00;11.90;;;8.60;99.90;;;;;;5075613;28;20439;-75
2021/10/28 06:13:30;;;;;;;15.67;12.47;;;8.70;99.90;;;;;;5075740;28;20469;-78
2021/10/28 06:15:57;;;;;;;13.43;11.70;;;8.70;99.90;;;;;;5080416;28;20447;-76
2021/10/28 06:18:38;;;;;;;13.93;11.50;;;8.70;99.90;;;;;;5082084;28;20502;-76
2021/10/28 06:21:05;;;;;;;14.40;11.60;;;8.70;99.90;;;;;;5072793;28;20459;-77
2021/10/28 06:23:33;;;;;;;15.47;13.10;;;8.70;99.90;;;;;;5075208;28;20985;-76
2021/10/28 06:26:01;;;;;;;15.57;13.13;;;8.60;99.90;;;;;;5074890;28;20443;-76
2021/10/28 06:28:28;;;;;;;14.10;12.57;;;8.60;99.90;;;;;;5073498;28;20935;-76
2021/10/28 06:30:54;;;;;;;16.47;12.33;;;8.70;99.90;;;;;;5073620;28;20501;-76
2021/10/28 06:33:23;;;;;;;14.03;12.50;;;8.60;99.90;;;;;;5073759;28;20509;-79
2021/10/28 06:35:50;;;;;;;17.03;13.00;;;8.70;99.90;;;;;;5073775;28;20458;-76
2021/10/28 06:38:17;;;;;;;13.90;12.03;;;8.80;99.90;;;;;;5071803;28;20443;-76
2021/10/28 06:40:44;;;;;;;13.03;11.70;;;8.80;99.90;;;;;;5073554;28;20452;-76
2021/10/28 06:43:12;;;;;;;14.10;12.70;;;8.80;99.90;;;;;;5073407;28;20455;-75
2021/10/28 06:45:39;;;;;;;18.63;13.40;;;8.80;99.90;;;;;;5074681;28;20443;-75
2021/10/28 06:48:06;;;;;;;18.80;13.10;;;8.90;99.90;;;;;;5074148;28;20788;-76
2021/10/28 06:50:39;;;;;;;16.87;12.87;;;8.90;99.90;;;;;;5074763;28;20969;-76
2021/10/28 06:53:10;;;;;;;17.50;12.50;;;9.00;99.90;;;;;;5074904;28;20452;-80
2021/10/28 06:55:42;;;;;;;15.87;12.67;;;9.10;99.90;;;;;;5074036;28;20792;-79
2021/10/28 07:03:40;;;;;;;17.80;13.43;;;9.20;99.90;;;;;;5074696;28;20493;-79
2021/10/28 07:06:10;;;;;;;22.00;12.47;;;9.30;99.90;;;;;;5074683;28;20450;-79
2021/10/28 07:08:39;;;;;;;14.50;12.60;;;9.30;99.90;;;;;;5074774;28;20534;-79
2021/10/28 07:11:08;;;;;;;17.40;13.40;;;9.40;99.90;;;;;;5074728;28;20931;-79
2021/10/28 07:13:36;;;;;;;14.90;13.00;;;9.40;99.90;;;;;;5074795;28;20547;-78
2021/10/28 07:16:13;;;;;;;16.57;13.07;;;9.40;99.90;;;;;;5076031;28;20469;-79
2021/10/28 07:18:47;;;;;;;16.97;13.13;;;9.50;99.90;;;;;;5094807;28;20476;-79
2021/10/28 07:27:36;;;;;;;17.70;12.40;;;9.50;99.90;;;;;;5090059;27;20549;-78
2021/10/28 07:30:23;;;;;;;15.03;11.70;;;9.60;99.90;;;;;;5090009;28;20849;-79
2021/10/28 07:33:06;;;;;;;14.63;12.53;;;9.60;99.90;;;;;;5089971;28;20451;-79
2021/10/28 07:35:49;;;;;;;14.53;12.20;;;9.60;99.90;;;;;;5089877;28;20473;-79
2021/10/28 07:55:39;;;;;;;15.17;12.20;;;9.90;99.90;;;;;;5089911;28;20953;-77
2021/10/28 07:58:23;;;;;;;14.20;11.93;;;9.90;99.90;;;;;;5089855;28;20461;-77
2021/10/28 08:14:59;;;;;;;17.37;13.47;;;10.20;99.90;;;;;;5089397;28;20963;-77
2021/10/28 08:20:32;;;;;;;14.43;12.40;;;10.30;99.90;;;;;;5099035;28;20446;-78
2021/10/28 08:23:06;;;;;;;17.17;13.80;;;10.40;99.90;;;;;;5083954;28;20450;-77
2021/10/28 08:31:02;;;;;;;15.47;12.83;;;10.50;99.90;;;;;;5089109;28;20446;-78
2021/10/28 08:33:30;;;;;;;18.97;13.77;;;10.60;99.90;;;;;;5088855;28;20477;-79
2021/10/28 08:36:07;;;;;;;17.47;13.37;;;10.60;99.90;;;;;;5088779;28;20439;-78
2021/10/28 08:38:34;;;;;;;16.67;12.53;;;10.70;99.90;;;;;;5072156;28;20443;-77
2021/10/28 08:41:04;;;;;;;17.10;14.40;;;10.70;99.90;;;;;;5074904;28;20440;-77
2021/10/28 08:43:35;;;;;;;22.00;15.70;;;10.70;99.90;;;;;;5074920;28;20938;-77
2021/10/28 08:46:02;;;;;;;16.53;14.03;;;10.80;99.90;;;;;;5075439;28;20880;-77
2021/10/28 08:48:32;;;;;;;16.00;13.03;;;10.80;99.90;;;;;;5075252;28;20504;-76
2021/10/28 08:51:06;;;;;;;15.57;12.93;;;10.90;99.90;;;;;;5075300;28;20440;-77
2021/10/28 08:53:52;;;;;;;16.00;13.10;;;10.90;99.90;;;;;;5058876;28;20449;-77
2021/10/28 08:56:38;;;;;;;13.50;12.10;;;11.00;99.90;;;;;;5075188;28;20450;-77
2021/10/28 08:59:24;;;;;;;15.70;13.77;;;11.10;99.90;;;;;;5074952;28;20531;-77
2021/10/28 09:24:17;;;;;;;16.00;13.60;;;11.40;99.90;;;;;;5074532;28;20992;-81
2021/10/28 09:26:54;;;;;;;15.10;12.90;;;11.40;99.90;;;;;;5074091;28;20986;-81
2021/10/28 09:29:30;;;;;;;18.23;13.60;;;11.40;99.90;;;;;;5074428;28;20538;-81
2021/10/28 09:32:05;;;;;;;20.03;14.60;;;11.40;99.90;;;;;;5074847;28;20812;-81
2021/10/28 09:34:51;;;;;;;15.60;13.97;;;11.50;99.90;;;;;;5074515;28;20447;-83
2021/10/28 09:45:50;;;;;;;15.90;12.97;;;11.60;99.90;;;;;;5073835;28;20474;-82
2021/10/28 09:48:31;;;;;;;14.13;11.73;;;11.70;99.90;;;;;;5071938;28;20506;-82
2021/10/28 09:51:00;;;;;;;16.10;12.23;;;11.70;99.90;;;;;;5071719;28;20792;-82
2021/10/28 09:53:31;;;;;;;12.73;11.40;;;11.70;99.90;;;;;;5073983;28;20447;-81
2021/10/28 09:58:43;;;;;;;13.73;11.10;;;11.90;99.90;;;;;;5072388;28;20423;-81
2021/10/28 10:01:31;;;;;;;11.90;10.63;;;11.90;99.90;;;;;;5074013;28;20505;-81
2021/10/28 10:04:00;;;;;;;12.30;9.70;;;11.90;99.90;;;;;;5073899;28;20466;-82
2021/10/28 10:06:27;;;;;;;14.30;12.17;;;11.90;99.90;;;;;;5073370;28;20502;-82
2021/10/28 10:08:57;;;;;;;15.73;11.10;;;11.90;99.90;;;;;;5071403;28;20439;-86
2021/10/28 10:11:27;;;;;;;11.80;10.50;;;12.00;99.90;;;;;;5071357;28;20471;-85
2021/10/28 10:13:54;;;;;;;12.77;11.47;;;12.00;99.90;;;;;;5074145;28;20443;-86
2021/10/28 10:16:21;;;;;;;11.30;10.10;;;12.00;99.90;;;;;;5074128;28;20482;-85
2021/10/28 10:18:49;;;;;;;10.87;9.70;;;12.10;99.90;;;;;;5073805;28;20776;-81
2021/10/28 10:21:28;;;;;;;14.90;11.60;;;12.10;99.90;;;;;;5073399;28;20545;-80
2021/10/28 10:24:10;;;;;;;10.70;9.60;;;12.20;99.90;;;;;;5058671;28;20443;-81
2021/10/28 10:27:41;;;;;;;12.60;10.43;;;12.20;99.90;;;;;;5073043;28;20490;-81
2021/10/28 11:21:51;;;;;;;9.90;8.93;;;12.90;99.90;;;;;;5072985;28;20442;-82
2021/10/28 11:33:35;;;;;;;11.43;9.20;;;12.90;99.90;;;;;;5073062;28;20451;-82
2021/10/28 12:21:37;;;;;;;10.60;8.40;;;13.20;99.90;;;;;;5075961;28;20833;-82
2021/10/28 12:24:28;;;;;;;9.30;8.27;;;13.20;99.90;;;;;;5075938;28;20475;-82
2021/10/28 12:44:04;;;;;;;9.23;7.00;;;13.30;99.90;;;;;;5075534;28;20451;-82
2021/10/28 12:46:57;;;;;;;12.30;11.10;;;13.40;99.90;;;;;;5075453;28;20479;-82
2021/10/28 12:49:45;;;;;;;7.80;7.00;;;13.40;99.90;;;;;;5075402;28;21022;-82
2021/10/28 13:06:24;;;;;;;7.47;6.63;;;13.50;99.90;;;;;;5061754;28;20462;-81
2021/10/28 13:50:09;;;;;;;5.13;4.73;;;13.50;99.90;;;;;;5054186;28;20440;-81
2021/10/28 13:53:01;;;;;;;7.40;4.70;;;13.50;99.90;;;;;;5054436;28;20455;-81
2021/10/28 13:55:54;;;;;;;5.17;4.70;;;13.50;99.90;;;;;;5054251;28;20923;-81
2021/10/28 13:58:41;;;;;;;4.90;4.50;;;13.50;99.90;;;;;;5054565;28;20452;-89
2021/10/28 14:21:14;;;;;;;6.13;5.50;;;13.50;99.90;;;;;;5068408;28;20442;-81
2021/10/28 14:23:54;;;;;;;6.07;5.47;;;13.50;99.90;;;;;;5072554;28;20530;-85
2021/10/28 14:32:20;;;;;;;7.30;4.80;;;13.50;99.90;;;;;;5072707;28;20434;-83
2021/10/28 15:00:25;;;;;;;7.53;5.50;;;13.30;99.90;;;;;;5070065;28;20995;-82
2021/10/28 15:03:07;;;;;;;8.10;6.13;;;13.20;99.90;;;;;;5072159;28;20428;-82
2021/10/28 15:30:28;;;;;;;6.37;5.77;;;12.70;99.90;;;;;;5062178;28;20443;-82
2021/10/28 15:35:41;;;;;;;7.73;7.00;;;12.60;99.90;;;;;;5070420;28;20439;-82
2021/10/28 15:41:19;;;;;;;7.20;6.50;;;12.50;99.90;;;;;;5066761;28;21096;-81
2021/10/28 15:57:47;;;;;;;6.90;6.13;;;12.10;99.90;;;;;;5073414;28;20426;-78
2021/10/28 16:00:27;;;;;;;8.57;7.63;;;12.00;99.90;;;;;;5075477;28;20483;-79
2021/10/28 16:22:25;;;;;;;10.27;9.27;;;11.50;99.90;;;;;;5073341;28;20941;-80
2021/10/28 16:24:51;;;;;;;15.27;12.80;;;11.40;99.90;;;;;;5074490;28;20447;-80
2021/10/28 16:27:18;;;;;;;14.97;11.50;;;11.40;99.90;;;;;;5074715;28;20471;-80
2021/10/28 16:29:46;;;;;;;11.57;9.80;;;11.30;99.90;;;;;;5062782;28;20482;-80
2021/10/28 16:32:14;;;;;;;8.90;8.00;;;11.30;99.90;;;;;;5074447;28;20536;-80
2021/10/28 16:34:41;;;;;;;9.80;8.40;;;11.20;99.90;;;;;;5074954;28;20473;-83
2021/10/28 16:37:07;;;;;;;9.50;8.50;;;11.20;99.90;;;;;;5073959;28;20505;-82
2021/10/28 16:39:34;;;;;;;8.60;7.80;;;11.10;99.90;;;;;;5074114;28;20460;-83
2021/10/28 16:42:00;;;;;;;10.10;8.80;;;11.10;99.90;;;;;;5071240;28;20525;-83
2021/10/28 16:44:27;;;;;;;9.53;8.60;;;11.00;99.90;;;;;;5074241;28;20799;-82
2021/10/28 16:46:56;;;;;;;10.20;9.17;;;11.00;99.90;;;;;;5073646;28;20475;-79
2021/10/28 16:49:23;;;;;;;14.07;10.33;;;11.00;99.90;;;;;;5073990;28;20479;-79
2021/10/28 16:51:50;;;;;;;10.70;9.20;;;10.90;99.90;;;;;;5072991;28;20501;-80
2021/10/28 16:54:18;;;;;;;10.83;9.67;;;10.90;99.90;;;;;;5072420;28;20486;-80
2021/10/28 16:56:45;;;;;;;10.97;9.90;;;10.90;99.90;;;;;;5071439;28;20451;-80
2021/10/28 16:59:12;;;;;;;10.40;9.40;;;10.90;99.90;;;;;;5068943;28;20479;-80
2021/10/28 17:01:39;;;;;;;12.00;8.50;;;10.80;99.90;;;;;;5073920;28;20451;-80
2021/10/28 17:04:07;;;;;;;9.10;8.23;;;10.80;99.90;;;;;;5073791;28;20447;-80
2021/10/28 17:06:34;;;;;;;9.13;8.17;;;10.80;99.90;;;;;;5073931;28;20471;-81
2021/10/28 17:09:06;;;;;;;9.57;8.57;;;10.70;99.90;;;;;;5073518;28;20497;-80
2021/10/28 17:11:33;;;;;;;14.03;10.37;;;10.70;99.90;;;;;;5072396;28;20449;-80
2021/10/28 17:14:01;;;;;;;11.00;9.80;;;10.70;99.90;;;;;;5071831;28;20452;-81
2021/10/28 17:16:29;;;;;;;12.00;10.50;;;10.60;99.90;;;;;;5072841;28;20448;-80
2021/10/28 17:18:56;;;;;;;13.80;10.87;;;10.60;99.90;;;;;;5072407;28;20501;-80
2021/10/28 17:21:24;;;;;;;11.43;10.23;;;10.60;99.90;;;;;;5072648;28;20456;-81
2021/10/28 17:23:58;;;;;;;12.83;11.00;;;10.60;99.90;;;;;;5071932;28;20455;-80
2021/10/28 17:26:25;;;;;;;11.97;10.57;;;10.50;99.90;;;;;;5073169;28;20554;-80
2021/10/28 17:28:53;;;;;;;12.57;10.40;;;10.50;99.90;;;;;;5073591;28;20451;-81
2021/10/28 17:31:20;;;;;;;14.90;11.40;;;10.50;99.90;;;;;;5073401;28;20999;-80
2021/10/28 17:33:47;;;;;;;13.50;11.10;;;10.50;99.90;;;;;;5073818;28;20454;-81
2021/10/28 17:36:13;;;;;;;12.97;11.60;;;10.50;99.90;;;;;;5073755;28;20655;-81
2021/10/28 17:38:41;;;;;;;16.00;12.23;;;10.40;99.90;;;;;;5073822;28;21041;-80
2021/10/28 17:41:08;;;;;;;14.50;10.80;;;10.40;99.90;;;;;;5073189;28;20448;-81
2021/10/28 17:43:40;;;;;;;11.73;10.53;;;10.40;99.90;;;;;;5073681;28;20443;-80
2021/10/28 17:46:08;;;;;;;12.23;10.93;;;10.40;99.90;;;;;;5073717;28;20444;-81
2021/10/28 17:48:34;;;;;;;17.90;12.50;;;10.40;99.90;;;;;;5073214;28;20484;-80
2021/10/28 17:51:01;;;;;;;13.53;12.13;;;10.30;99.90;;;;;;5073048;28;20538;-80
2021/10/28 17:53:28;;;;;;;11.80;10.60;;;10.30;99.90;;;;;;5070445;28;20448;-80
2021/10/28 17:55:56;;;;;;;14.00;10.07;;;10.30;99.90;;;;;;5066837;28;20808;-80
2021/10/28 17:58:22;;;;;;;12.03;10.70;;;10.20;99.90;;;;;;5073110;28;20901;-81
2021/10/28 18:00:49;;;;;;;11.23;9.50;;;10.20;99.90;;;;;;5073102;28;21072;-80
2021/10/28 18:03:19;;;;;;;12.70;11.40;;;10.20;99.90;;;;;;5073016;28;20513;-80
2021/10/28 18:05:46;;;;;;;11.27;10.10;;;10.20;99.90;;;;;;5071293;28;20447;-80
2021/10/28 18:08:14;;;;;;;11.17;10.00;;;10.20;99.90;;;;;;5070167;28;20472;-81
2021/10/28 18:10:41;;;;;;;13.43;11.00;;;10.20;99.90;;;;;;5071545;28;20447;-80
2021/10/28 18:13:12;;;;;;;15.07;12.90;;;10.10;99.90;;;;;;5072597;28;20444;-80
2021/10/28 18:15:38;;;;;;;13.80;11.30;;;10.10;99.90;;;;;;5072453;28;20447;-80
2021/10/28 18:18:05;;;;;;;12.73;11.47;;;10.10;99.90;;;;;;5072268;28;20446;-80
2021/10/28 18:20:36;;;;;;;12.70;11.27;;;10.10;99.90;;;;;;5072202;28;20505;-80
2021/10/28 18:23:02;;;;;;;13.77;10.17;;;10.00;99.90;;;;;;5071534;28;20505;-80
2021/10/28 18:25:29;;;;;;;12.50;10.97;;;10.00;99.90;;;;;;5072099;28;20528;-80
2021/10/28 18:27:56;;;;;;;11.63;10.43;;;9.90;99.90;;;;;;5071912;28;20514;-80
2021/10/28 18:30:28;;;;;;;10.73;9.63;;;9.90;99.90;;;;;;5072341;28;20447;-81
2021/10/28 18:32:55;;;;;;;12.33;10.30;;;9.90;99.90;;;;;;5071920;28;20504;-81
2021/10/28 18:35:21;;;;;;;12.60;11.30;;;9.80;99.90;;;;;;5072267;28;20471;-81
2021/10/28 18:37:49;;;;;;;13.63;10.80;;;9.80;99.90;;;;;;5071640;28;20564;-80
2021/10/28 18:40:17;;;;;;;12.17;10.87;;;9.80;99.90;;;;;;5071359;28;20459;-80
2021/10/28 18:42:44;;;;;;;11.27;10.03;;;9.80;99.90;;;;;;5072053;28;20854;-80
2021/10/28 18:45:11;;;;;;;11.17;9.80;;;9.80;99.90;;;;;;5056947;28;20516;-80
2021/10/28 18:47:39;;;;;;;11.30;10.10;;;9.70;99.90;;;;;;5071550;28;20862;-81
2021/10/28 18:50:07;;;;;;;10.10;9.17;;;9.70;99.90;;;;;;5071920;28;20447;-80
2021/10/28 18:52:36;;;;;;;11.10;10.00;;;9.80;99.90;;;;;;5071529;28;21010;-80
2021/10/28 18:55:04;;;;;;;10.60;8.97;;;9.70;99.90;;;;;;5070583;28;20509;-80
2021/10/28 18:57:37;;;;;;;10.90;9.70;;;9.70;99.90;;;;;;5071867;28;20443;-80
2021/10/28 19:00:08;;;;;;;10.63;9.53;;;9.70;99.90;;;;;;5072187;28;20443;-80
2021/10/28 19:02:36;;;;;;;13.30;10.23;;;9.70;99.90;;;;;;5071771;28;20938;-80
2021/10/28 19:05:05;;;;;;;19.07;10.40;;;9.60;99.90;;;;;;5071910;28;20776;-80
2021/10/28 19:07:32;;;;;;;10.17;9.17;;;9.70;99.90;;;;;;5069512;28;20537;-80
2021/10/28 19:10:00;;;;;;;15.13;9.50;;;9.70;99.90;;;;;;5071864;28;20450;-80
2021/10/28 19:12:26;;;;;;;13.53;8.70;;;9.70;99.90;;;;;;5071800;28;20450;-80
2021/10/28 19:14:54;;;;;;;8.57;7.67;;;9.60;99.90;;;;;;5071918;28;20443;-80
2021/10/28 19:17:21;;;;;;;8.70;7.40;;;9.70;99.90;;;;;;5071844;28;20451;-80
2021/10/28 19:19:48;;;;;;;9.90;7.80;;;9.60;99.90;;;;;;5069576;28;20447;-80
2021/10/28 19:22:16;;;;;;;10.07;9.07;;;9.60;99.90;;;;;;5070425;28;20444;-80
2021/10/28 19:24:43;;;;;;;8.97;7.80;;;9.60;99.90;;;;;;5071386;28;20502;-81
2021/10/28 19:27:13;;;;;;;8.97;7.33;;;9.60;99.90;;;;;;5071029;28;21182;-80
2021/10/28 19:29:44;;;;;;;8.87;7.97;;;9.60;99.90;;;;;;5071565;28;20480;-80
2021/10/28 19:32:15;;;;;;;9.00;7.20;;;9.60;99.90;;;;;;5071295;28;20454;-80
2021/10/28 19:34:43;;;;;;;8.60;7.60;;;9.60;99.90;;;;;;5055742;28;20459;-80
2021/10/28 19:37:15;;;;;;;10.40;8.27;;;9.60;99.90;;;;;;5071332;28;20505;-80
2021/10/28 19:45:02;;;;;;;7.83;7.13;;;9.60;99.90;;;;;;5060392;28;20443;-80
2021/10/28 19:48:05;;;;;;;8.57;7.33;;;9.60;99.90;;;;;;5049539;28;20485;-80
2021/10/28 19:50:32;;;;;;;6.93;6.33;;;9.50;99.90;;;;;;5070118;28;20463;-80
2021/10/28 19:52:58;;;;;;;10.47;7.87;;;9.50;99.90;;;;;;5070496;28;20859;-80
2021/10/28 19:55:27;;;;;;;11.97;8.23;;;9.50;99.90;;;;;;5071338;28;20962;-83
2021/10/28 19:57:54;;;;;;;8.67;7.77;;;9.50;99.90;;;;;;5073847;28;20455;-94
2021/10/28 20:00:28;;;;;;;8.13;7.20;;;9.50;99.90;;;;;;5072199;28;20447;-83
2021/10/28 20:03:25;;;;;;;9.32;8.00;;;9.50;99.90;;;;;;5069576;28;20529;-84
2021/10/28 20:06:09;;;;;;;11.00;7.90;;;9.40;99.90;;;;;;5072544;28;20541;-83
2021/10/28 20:14:27;;;;;;;10.13;9.10;;;9.40;99.90;;;;;;5069614;28;20438;-80
2021/10/28 20:22:23;;;;;;;11.07;7.90;;;9.40;99.90;;;;;;5070775;28;20447;-80